createdAt,value
2023-02-16T00:01:52.212Z,2.10
2023-02-16T00:04:22.424Z,3.13
2023-02-16T00:06:51.118Z,5.17
2023-02-16T00:09:20.052Z,3.97
2023-02-16T00:12:06.225Z,3.47
2023-02-16T00:14:35.672Z,5.70
2023-02-16T00:17:06.085Z,2.33
2023-02-16T00:19:37.439Z,3.90
2023-02-16T00:22:06.770Z,2.10
2023-02-16T00:24:35.389Z,5.27
2023-02-16T00:27:03.689Z,5.27
2023-02-16T00:29:35.230Z,3.67
2023-02-16T00:32:06.971Z,4.47
2023-02-16T00:34:36.434Z,2.67
2023-02-16T00:37:06.133Z,4.00
2023-02-16T00:39:35.087Z,6.93
2023-02-16T00:42:05.649Z,4.23
2023-02-16T00:44:37.559Z,6.00
2023-02-16T00:47:18.967Z,4.13
2023-02-16T00:49:47.323Z,2.63
2023-02-16T00:52:34.737Z,4.87
2023-02-16T00:55:04.842Z,2.63
2023-02-16T00:57:36.118Z,2.63
2023-02-16T01:00:09.520Z,3.17
2023-02-16T01:02:39.076Z,4.83
2023-02-16T01:05:07.796Z,4.40
2023-02-16T01:07:53.425Z,2.87
2023-02-16T01:10:39.717Z,2.87
2023-02-16T01:13:07.792Z,4.33
2023-02-16T01:15:36.078Z,6.07
2023-02-16T01:18:06.186Z,2.50
2023-02-16T01:20:36.596Z,4.27
2023-02-16T01:23:05.239Z,5.63
2023-02-16T01:25:33.528Z,6.63
2023-02-16T01:28:03.058Z,3.27
2023-02-16T01:30:31.275Z,4.23
2023-02-16T01:32:59.228Z,4.87
2023-02-16T01:35:34.579Z,5.33
2023-02-16T01:38:02.722Z,5.40
2023-02-16T01:40:39.789Z,4.37
2023-02-16T01:43:18.589Z,4.13
2023-02-16T01:45:49.614Z,5.83
2023-02-16T01:48:25.999Z,7.70
2023-02-16T01:51:01.439Z,3.13
2023-02-16T01:53:34.659Z,5.80
2023-02-16T01:56:05.886Z,6.97
2023-02-16T01:58:41.300Z,8.03
2023-02-16T02:01:39.137Z,3.13
2023-02-16T02:04:41.124Z,6.60
2023-02-16T02:07:15.336Z,4.57
2023-02-16T02:09:51.401Z,6.07
2023-02-16T02:12:29.964Z,3.33
2023-02-16T02:14:57.970Z,6.63
2023-02-16T02:17:26.983Z,9.80
2023-02-16T02:20:07.740Z,6.60
2023-02-16T02:23:32.500Z,3.77
2023-02-16T02:26:48.455Z,7.33
2023-02-16T02:29:45.389Z,3.43
2023-02-16T02:32:21.940Z,3.70
2023-02-16T02:35:01.714Z,3.27
2023-02-16T02:37:40.875Z,4.83
2023-02-16T02:40:18.191Z,2.63
2023-02-16T02:42:52.865Z,2.10
2023-02-16T02:45:26.345Z,2.50
2023-02-16T02:47:54.329Z,2.90
2023-02-16T02:51:06.099Z,3.63
2023-02-16T02:53:37.309Z,1.30
2023-02-16T02:56:25.858Z,1.60
2023-02-16T02:59:16.699Z,1.03
2023-02-16T03:01:51.329Z,2.03
2023-02-16T03:04:23.744Z,0.77
2023-02-16T03:06:54.300Z,1.60
2023-02-16T03:09:22.672Z,1.57
2023-02-16T03:12:09.220Z,2.37
2023-02-16T03:14:41.186Z,0.83
2023-02-16T03:17:30.201Z,0.73
2023-02-16T03:20:17.575Z,0.73
2023-02-16T03:23:03.734Z,1.80
2023-02-16T03:25:52.406Z,0.57
2023-02-16T03:28:41.083Z,3.23
2023-02-16T03:31:13.028Z,0.97
2023-02-16T03:33:42.946Z,2.07
2023-02-16T03:36:12.044Z,1.17
2023-02-16T03:38:40.070Z,1.07
2023-02-16T03:41:08.225Z,1.67
2023-02-16T03:43:36.138Z,1.30
2023-02-16T03:46:04.186Z,1.27
2023-02-16T03:48:32.155Z,1.07
2023-02-16T03:51:01.701Z,1.07
2023-02-16T03:53:30.037Z,1.10
2023-02-16T03:55:58.063Z,0.87
2023-02-16T03:58:26.391Z,2.00
2023-02-16T04:00:54.738Z,0.77
2023-02-16T04:03:22.718Z,0.63
2023-02-16T04:05:50.645Z,0.07
2023-02-16T04:08:20.332Z,0.20
2023-02-16T04:10:48.559Z,1.17
2023-02-16T04:13:15.468Z,0.40
2023-02-16T04:15:45.540Z,0.00
2023-02-16T04:18:13.657Z,0.10
2023-02-16T04:20:41.774Z,1.20
2023-02-16T04:23:09.928Z,1.00
2023-02-16T04:25:39.531Z,0.37
2023-02-16T04:28:07.462Z,0.10
2023-02-16T04:30:35.490Z,1.17
2023-02-16T04:33:03.547Z,0.13
2023-02-16T04:35:31.458Z,0.80
2023-02-16T04:37:59.469Z,1.03
2023-02-16T04:40:27.429Z,0.40
2023-02-16T04:42:56.872Z,0.40
2023-02-16T04:45:24.812Z,0.97
2023-02-16T04:47:53.046Z,0.20
2023-02-16T04:50:21.054Z,0.10
2023-02-16T04:52:49.085Z,0.30
2023-02-16T04:55:17.082Z,0.57
2023-02-16T04:57:45.029Z,0.17
2023-02-16T05:00:15.445Z,0.47
2023-02-16T05:02:43.402Z,0.97
2023-02-16T05:05:11.355Z,0.30
2023-02-16T05:07:39.807Z,0.20
2023-02-16T05:10:08.679Z,0.50
2023-02-16T05:12:52.975Z,2.93
2023-02-16T05:15:22.452Z,0.20
2023-02-16T05:17:50.506Z,1.03
2023-02-16T05:20:18.651Z,0.27
2023-02-16T05:22:46.725Z,0.53
2023-02-16T05:25:14.724Z,0.70
2023-02-16T05:27:42.720Z,0.40
2023-02-16T05:30:12.055Z,0.13
2023-02-16T05:32:41.454Z,0.20
2023-02-16T05:35:09.497Z,0.73
2023-02-16T05:37:37.832Z,0.90
2023-02-16T05:40:06.998Z,0.50
2023-02-16T05:42:34.920Z,0.53
2023-02-16T05:45:03.688Z,0.13
2023-02-16T05:47:31.700Z,0.37
2023-02-16T05:50:01.122Z,1.40
2023-02-16T05:52:29.101Z,0.50
2023-02-16T05:54:56.999Z,0.30
2023-02-16T05:57:24.853Z,0.77
2023-02-16T05:59:52.747Z,1.23
2023-02-16T06:02:21.093Z,0.70
2023-02-16T06:04:49.073Z,0.83
2023-02-16T06:07:18.753Z,0.40
2023-02-16T06:09:46.644Z,1.90
2023-02-16T06:12:14.483Z,0.83
2023-02-16T06:14:42.385Z,2.23
2023-02-16T06:17:10.276Z,1.33
2023-02-16T06:19:38.196Z,2.30
2023-02-16T06:22:06.280Z,7.27
2023-02-16T06:24:37.231Z,16.17
2023-02-16T06:27:05.364Z,11.47
2023-02-16T06:29:33.365Z,7.23
2023-02-16T06:32:01.527Z,6.73
2023-02-16T06:34:29.571Z,12.53
2023-02-16T06:36:57.587Z,7.33
2023-02-16T06:39:25.611Z,13.63
2023-02-16T06:41:55.009Z,7.43
2023-02-16T06:44:22.983Z,23.63
2023-02-16T06:46:50.956Z,4.17
2023-02-16T06:49:21.193Z,14.53
2023-02-16T06:51:50.179Z,10.80
2023-02-16T06:54:18.743Z,7.23
2023-02-16T06:56:46.887Z,5.10
2023-02-16T06:59:16.530Z,5.13
2023-02-16T07:01:45.493Z,3.43
2023-02-16T07:04:14.043Z,0.70
2023-02-16T07:06:42.813Z,15.70
2023-02-16T07:09:12.754Z,5.70
2023-02-16T07:11:41.098Z,9.13
2023-02-16T07:14:09.242Z,6.73
2023-02-16T07:16:39.129Z,4.77
2023-02-16T07:19:07.280Z,5.43
2023-02-16T07:21:35.718Z,2.43
2023-02-16T07:24:03.809Z,4.00
2023-02-16T07:26:31.880Z,4.90
2023-02-16T07:29:00.058Z,5.47
2023-02-16T07:31:28.129Z,6.70
2023-02-16T07:33:57.657Z,8.40
2023-02-16T07:36:25.916Z,15.67
2023-02-16T07:38:55.159Z,5.93
2023-02-16T07:41:23.622Z,5.30
2023-02-16T07:43:51.638Z,10.87
2023-02-16T07:46:19.598Z,3.30
2023-02-16T07:48:48.814Z,6.80
2023-02-16T07:51:23.982Z,9.23
2023-02-16T07:53:52.224Z,9.53
2023-02-16T07:56:26.979Z,9.13
2023-02-16T07:58:55.846Z,7.60
2023-02-16T08:01:23.962Z,10.10
2023-02-16T08:03:52.534Z,10.93
2023-02-16T08:06:23.062Z,8.57
2023-02-16T08:08:51.246Z,13.33
2023-02-16T08:11:21.408Z,12.17
2023-02-16T08:13:49.784Z,4.33
2023-02-16T08:16:20.426Z,3.53
2023-02-16T08:18:48.947Z,7.07
2023-02-16T08:21:19.112Z,4.80
2023-02-16T08:23:54.711Z,7.27
2023-02-16T08:26:27.000Z,6.07
2023-02-16T08:28:56.573Z,14.03
2023-02-16T08:31:28.549Z,8.23
2023-02-16T08:33:57.395Z,10.67
2023-02-16T08:36:29.580Z,9.93
2023-02-16T08:38:59.617Z,12.27
2023-02-16T08:41:31.236Z,4.90
2023-02-16T08:44:00.925Z,7.73
2023-02-16T08:46:30.181Z,7.60
2023-02-16T08:49:00.206Z,13.47
2023-02-16T08:51:38.578Z,7.63
2023-02-16T08:54:09.376Z,6.33
2023-02-16T08:56:38.044Z,6.83
2023-02-16T08:59:06.134Z,12.50
2023-02-16T09:01:34.153Z,11.73
2023-02-16T09:04:02.372Z,11.50
2023-02-16T09:06:30.467Z,8.07
2023-02-16T09:08:58.749Z,6.20
2023-02-16T09:11:28.325Z,9.47
2023-02-16T09:13:56.503Z,8.57
2023-02-16T09:16:25.356Z,5.13
2023-02-16T09:18:53.844Z,9.00
2023-02-16T09:21:23.388Z,6.47
2023-02-16T09:23:52.323Z,9.90
2023-02-16T09:26:22.554Z,16.67
2023-02-16T09:28:53.459Z,7.80
2023-02-16T09:31:26.417Z,12.90
2023-02-16T09:33:57.606Z,10.63
2023-02-16T09:36:25.817Z,4.13
2023-02-16T09:38:54.591Z,9.07
2023-02-16T09:41:32.048Z,3.73
2023-02-16T09:44:10.564Z,11.13
2023-02-16T09:46:39.384Z,9.53
2023-02-16T09:49:10.678Z,5.23
2023-02-16T09:51:42.299Z,10.67
2023-02-16T09:54:24.809Z,13.10
2023-02-16T09:56:58.088Z,8.87
2023-02-16T09:59:45.193Z,12.13
2023-02-16T10:02:31.423Z,10.87
2023-02-16T10:05:17.439Z,12.97
2023-02-16T10:07:56.352Z,7.53
2023-02-16T10:10:27.542Z,16.43
2023-02-16T10:13:03.537Z,10.03
2023-02-16T10:15:34.977Z,6.80
2023-02-16T10:18:10.199Z,12.00
2023-02-16T10:20:41.853Z,12.97
2023-02-16T10:23:23.878Z,7.33
2023-02-16T10:25:56.688Z,6.33
2023-02-16T10:28:34.086Z,9.37
2023-02-16T10:31:06.307Z,6.87
2023-02-16T10:33:42.597Z,5.67
2023-02-16T10:36:18.188Z,12.53
2023-02-16T10:38:54.119Z,12.13
2023-02-16T10:41:33.057Z,11.23
2023-02-16T10:44:09.676Z,5.13
2023-02-16T10:46:43.579Z,4.63
2023-02-16T10:49:14.315Z,7.57
2023-02-16T10:51:46.714Z,12.93
2023-02-16T10:54:19.628Z,9.50
2023-02-16T10:56:52.666Z,10.57
2023-02-16T10:59:22.655Z,10.30
2023-02-16T11:01:54.638Z,16.23
2023-02-16T11:04:39.588Z,9.40
2023-02-16T11:07:10.974Z,5.43
2023-02-16T11:09:40.278Z,6.47
2023-02-16T11:12:29.351Z,8.27
2023-02-16T11:15:02.779Z,11.33
2023-02-16T11:17:34.320Z,7.37
2023-02-16T11:20:05.992Z,14.57
2023-02-16T11:22:37.992Z,9.63
2023-02-16T11:25:28.184Z,10.90
2023-02-16T11:28:05.524Z,9.93
2023-02-16T11:30:38.981Z,6.40
2023-02-16T11:33:23.988Z,11.73
2023-02-16T11:35:52.293Z,9.40
2023-02-16T11:38:29.103Z,6.53
2023-02-16T11:40:58.746Z,11.27
2023-02-16T11:43:30.256Z,11.23
2023-02-16T11:46:04.027Z,11.27
2023-02-16T11:48:35.374Z,8.90
2023-02-16T11:51:05.321Z,4.03
2023-02-16T11:53:35.778Z,8.93
2023-02-16T11:56:22.320Z,13.20
2023-02-16T11:59:08.799Z,8.27
2023-02-16T12:01:59.282Z,11.40
2023-02-16T12:04:46.464Z,10.07
2023-02-16T12:07:24.525Z,5.63
2023-02-16T12:10:02.746Z,8.13
2023-02-16T12:12:38.588Z,8.27
2023-02-16T12:15:22.158Z,10.93
2023-02-16T12:18:08.717Z,7.53
2023-02-16T12:20:48.968Z,25.97
2023-02-16T12:23:38.732Z,12.93
2023-02-16T12:26:24.847Z,33.77
2023-02-16T12:29:03.864Z,6.13
2023-02-16T12:31:41.734Z,8.20
2023-02-16T12:34:20.829Z,14.10
2023-02-16T12:36:59.322Z,34.03
2023-02-16T12:39:32.310Z,14.60
2023-02-16T12:45:57.252Z,17.50
2023-02-16T12:48:49.622Z,9.53
2023-02-16T12:51:22.041Z,9.70
2023-02-16T12:53:58.404Z,10.63
2023-02-16T12:56:32.418Z,14.00
2023-02-16T12:59:11.265Z,6.90
2023-02-16T13:01:39.587Z,11.97
2023-02-16T13:04:19.451Z,5.97
2023-02-16T13:06:58.240Z,5.40
2023-02-16T13:09:48.184Z,11.43
2023-02-16T13:12:27.300Z,8.07
2023-02-16T13:15:03.846Z,5.90
2023-02-16T13:17:36.576Z,7.43
2023-02-16T13:20:05.565Z,7.37
2023-02-16T13:22:53.240Z,6.23
2023-02-16T13:25:48.267Z,6.10
2023-02-16T13:28:38.161Z,5.23
2023-02-16T13:31:19.283Z,4.27
2023-02-16T13:34:04.235Z,2.50
2023-02-16T13:37:04.196Z,10.47
2023-02-16T13:39:55.309Z,3.57
2023-02-16T13:42:55.079Z,12.77
2023-02-16T13:45:26.975Z,17.37
2023-02-16T13:47:57.622Z,37.73
2023-02-16T13:50:30.440Z,9.27
2023-02-16T13:53:09.874Z,5.63
2023-02-16T13:55:40.365Z,28.43
2023-02-16T13:58:28.907Z,13.73
2023-02-16T14:00:57.280Z,2.13
2023-02-16T14:03:43.192Z,9.47
2023-02-16T14:06:40.004Z,5.43
2023-02-16T14:09:46.893Z,3.87
2023-02-16T14:12:20.114Z,3.20
2023-02-16T14:15:00.329Z,5.90
2023-02-16T14:17:31.841Z,7.57
2023-02-16T14:20:02.392Z,10.27
2023-02-16T14:22:42.164Z,3.07
2023-02-16T14:25:38.945Z,6.80
2023-02-16T14:28:35.413Z,6.57
2023-02-16T14:31:15.576Z,2.77
2023-02-16T14:33:48.662Z,5.40
2023-02-16T14:36:19.740Z,8.80
2023-02-16T14:38:49.604Z,2.20
2023-02-16T14:41:32.384Z,5.23
2023-02-16T14:44:32.622Z,4.87
2023-02-16T14:47:19.175Z,10.50
2023-02-16T14:50:04.286Z,10.57
2023-02-16T14:52:54.619Z,3.33
2023-02-16T14:56:01.571Z,3.70
2023-02-16T14:58:33.844Z,4.07
2023-02-16T15:01:09.514Z,6.20
2023-02-16T15:03:46.526Z,3.77
2023-02-16T15:06:24.296Z,11.83
2023-02-16T15:08:58.460Z,9.17
2023-02-16T15:11:32.750Z,9.83
2023-02-16T15:14:07.912Z,18.00
2023-02-16T15:16:39.219Z,12.17
2023-02-16T15:19:16.829Z,9.63
2023-02-16T15:21:44.945Z,8.03
2023-02-16T15:24:23.991Z,11.63
2023-02-16T15:27:01.588Z,9.30
2023-02-16T15:29:31.528Z,9.83
2023-02-16T15:32:01.536Z,11.07
2023-02-16T15:34:35.089Z,3.77
2023-02-16T15:37:20.620Z,10.00
2023-02-16T15:40:12.133Z,11.13
2023-02-16T15:42:37.566Z,9.80
2023-02-16T15:45:27.087Z,12.17
2023-02-16T15:47:55.493Z,8.63
2023-02-16T15:50:27.000Z,4.03
2023-02-16T15:52:55.394Z,4.00
2023-02-16T15:55:24.288Z,4.30
2023-02-16T15:57:53.917Z,9.80
2023-02-16T16:00:25.117Z,6.30
2023-02-16T16:02:55.848Z,52.73
2023-02-16T16:05:28.413Z,60.07
2023-02-16T16:07:58.302Z,12.67
2023-02-16T16:10:30.362Z,18.57
2023-02-16T16:13:02.117Z,13.97
2023-02-16T16:15:32.839Z,43.20
2023-02-16T16:18:02.754Z,27.73
2023-02-16T16:20:38.092Z,12.37
2023-02-16T16:23:22.465Z,10.67
2023-02-16T16:25:50.794Z,9.10
2023-02-16T16:28:34.580Z,13.10
2023-02-16T16:31:10.634Z,19.73
2023-02-16T16:33:56.187Z,20.50
2023-02-16T16:36:32.172Z,10.03
2023-02-16T16:39:25.834Z,10.03
2023-02-16T16:42:21.520Z,14.03
2023-02-16T16:44:59.518Z,12.83
2023-02-16T16:47:31.044Z,14.83
2023-02-16T16:50:00.973Z,18.43
2023-02-16T16:52:41.721Z,18.10
2023-02-16T16:55:22.671Z,19.27
2023-02-16T16:57:53.001Z,14.30
2023-02-16T17:00:22.160Z,17.57
2023-02-16T17:02:50.768Z,16.03
2023-02-16T17:05:19.517Z,13.23
2023-02-16T17:07:51.950Z,18.30
2023-02-16T17:10:21.705Z,24.97
2023-02-16T17:12:53.337Z,21.13
2023-02-16T17:15:35.594Z,16.43
2023-02-16T17:18:04.040Z,9.13
2023-02-16T17:20:32.943Z,7.50
2023-02-16T17:23:04.887Z,12.63
2023-02-16T17:25:36.374Z,17.87
2023-02-16T17:28:05.598Z,8.20
2023-02-16T17:30:34.260Z,12.43
2023-02-16T17:33:02.863Z,16.63
2023-02-16T17:35:32.515Z,11.57
2023-02-16T17:38:00.803Z,16.60
2023-02-16T17:40:30.310Z,10.10
2023-02-16T17:42:58.336Z,9.10
2023-02-16T17:45:26.339Z,13.53
2023-02-16T17:47:54.334Z,15.97
2023-02-16T17:50:22.610Z,12.40
2023-02-16T17:52:50.658Z,14.53
2023-02-16T17:55:18.801Z,8.23
2023-02-16T17:57:48.196Z,44.17
2023-02-16T18:00:21.254Z,10.07
2023-02-16T18:02:49.272Z,16.13
2023-02-16T18:05:17.890Z,12.83
2023-02-16T18:07:45.923Z,8.83
2023-02-16T18:10:33.748Z,10.80
2023-02-16T18:13:03.830Z,14.00
2023-02-16T18:15:31.968Z,15.77
2023-02-16T18:18:00.426Z,17.23
2023-02-16T18:20:28.749Z,12.27
2023-02-16T18:22:56.879Z,12.27
2023-02-16T18:25:32.901Z,16.17
2023-02-16T18:28:14.379Z,7.33
2023-02-16T18:30:42.556Z,5.83
2023-02-16T18:33:10.648Z,7.33
2023-02-16T18:35:38.761Z,11.30
2023-02-16T18:38:06.794Z,6.83
2023-02-16T18:40:34.982Z,11.83
2023-02-16T18:43:04.763Z,10.47
2023-02-16T18:45:33.017Z,10.20
2023-02-16T18:48:01.047Z,8.27
2023-02-16T18:50:29.156Z,12.10
2023-02-16T18:52:57.400Z,5.90
2023-02-16T18:55:27.662Z,7.87
2023-02-16T18:57:55.893Z,6.40
2023-02-16T19:00:25.672Z,12.10
2023-02-16T19:02:54.451Z,14.97
2023-02-16T19:05:23.047Z,12.53
2023-02-16T19:07:51.528Z,7.93
2023-02-16T19:10:19.812Z,10.57
2023-02-16T19:12:47.984Z,12.13
2023-02-16T19:15:15.916Z,10.13
2023-02-16T19:17:45.492Z,16.30
2023-02-16T19:20:18.106Z,11.03
2023-02-16T19:22:46.632Z,10.57
2023-02-16T19:25:15.121Z,14.57
2023-02-16T19:27:43.568Z,9.43
2023-02-16T19:30:13.194Z,12.60
2023-02-16T19:32:42.259Z,15.43
2023-02-16T19:35:13.542Z,6.57
2023-02-16T19:37:41.616Z,9.67
2023-02-16T19:40:11.794Z,11.23
2023-02-16T19:42:40.315Z,16.57
2023-02-16T19:45:09.158Z,18.40
2023-02-16T19:47:37.237Z,14.60
2023-02-16T19:50:05.628Z,10.97
2023-02-16T19:52:35.206Z,10.70
2023-02-16T19:55:03.226Z,15.83
2023-02-16T19:57:31.340Z,8.50
2023-02-16T19:59:59.319Z,7.57
2023-02-16T20:02:28.881Z,7.10
2023-02-16T20:04:57.011Z,9.50
2023-02-16T20:07:24.993Z,10.13
2023-02-16T20:09:54.744Z,9.90
2023-02-16T20:12:22.911Z,6.07
2023-02-16T20:14:51.160Z,3.87
2023-02-16T20:17:19.394Z,10.20
2023-02-16T20:19:47.912Z,9.73
2023-02-16T20:22:16.898Z,6.27
2023-02-16T20:24:45.066Z,11.33
2023-02-16T20:27:15.681Z,4.73
2023-02-16T20:29:43.878Z,4.60
2023-02-16T20:32:11.937Z,3.47
2023-02-16T20:34:39.965Z,6.73
2023-02-16T20:37:08.191Z,3.57
2023-02-16T20:39:36.325Z,8.83
2023-02-16T20:42:04.449Z,10.13
2023-02-16T20:44:34.095Z,5.23
2023-02-16T20:47:03.403Z,8.00
2023-02-16T20:49:32.214Z,10.20
2023-02-16T20:52:01.449Z,4.23
2023-02-16T20:54:29.612Z,11.33
2023-02-16T20:56:57.780Z,11.70
2023-02-16T20:59:25.750Z,14.77
2023-02-16T21:01:55.268Z,9.73
2023-02-16T21:04:23.791Z,14.67
2023-02-16T21:06:52.222Z,15.50
2023-02-16T21:09:20.321Z,14.93
2023-02-16T21:11:48.423Z,17.97
2023-02-16T21:14:16.576Z,8.83
2023-02-16T21:16:45.265Z,14.00
2023-02-16T21:19:22.892Z,18.93
2023-02-16T21:21:52.223Z,16.27
2023-02-16T21:24:20.804Z,12.90
2023-02-16T21:26:49.203Z,17.77
2023-02-16T21:29:17.238Z,25.50
2023-02-16T21:31:45.363Z,16.67
2023-02-16T21:34:15.056Z,16.23
2023-02-16T21:36:43.034Z,16.17
2023-02-16T21:39:11.303Z,27.33
2023-02-16T21:41:38.348Z,22.77
2023-02-16T21:44:08.822Z,23.20
2023-02-16T21:46:38.709Z,19.57
2023-02-16T21:49:07.572Z,30.17
2023-02-16T21:51:39.098Z,50.37
2023-02-16T21:54:07.949Z,20.40
2023-02-16T21:56:38.143Z,52.17
2023-02-16T21:59:08.288Z,37.50
2023-02-16T22:01:40.302Z,27.40
2023-02-16T22:04:08.495Z,41.67
2023-02-16T22:06:41.109Z,59.10
2023-02-16T22:09:11.620Z,60.07
2023-02-16T22:11:39.959Z,105.13
2023-02-16T22:14:08.290Z,66.53
2023-02-16T22:16:39.755Z,106.33
2023-02-16T22:19:12.598Z,165.33
2023-02-16T22:21:43.798Z,22.53
2023-02-16T22:24:14.326Z,101.80
2023-02-16T22:26:42.833Z,178.97
2023-02-16T22:29:12.130Z,83.83
2023-02-16T22:31:44.754Z,99.17
2023-02-16T22:34:16.266Z,55.50
2023-02-16T22:36:49.806Z,150.43
2023-02-16T22:39:20.389Z,142.80
2023-02-16T22:41:51.947Z,58.33
2023-02-16T22:44:21.762Z,26.43
2023-02-16T22:46:50.383Z,16.77
2023-02-16T22:49:35.122Z,34.43
2023-02-16T22:52:06.985Z,8.03
2023-02-16T22:54:35.019Z,36.83
2023-02-16T22:57:03.304Z,20.33
2023-02-16T22:59:31.505Z,23.63
2023-02-16T23:01:59.637Z,28.37
2023-02-16T23:04:27.901Z,19.47
2023-02-16T23:06:56.043Z,12.77
2023-02-16T23:09:25.810Z,6.93
2023-02-16T23:11:54.465Z,21.37
2023-02-16T23:14:22.897Z,7.57
2023-02-16T23:19:36.928Z,7.57
2023-02-16T23:22:05.301Z,16.60
2023-02-16T23:24:35.738Z,8.47
2023-02-16T23:27:04.447Z,12.10
2023-02-16T23:29:36.427Z,15.70
2023-02-16T23:32:07.037Z,11.00
2023-02-16T23:34:38.836Z,8.60
2023-02-16T23:37:06.992Z,8.90
2023-02-16T23:39:37.402Z,8.73
2023-02-16T23:42:06.128Z,7.73
2023-02-16T23:44:34.393Z,11.27
2023-02-16T23:47:17.854Z,11.43
2023-02-16T23:49:46.614Z,4.63
2023-02-16T23:52:14.882Z,5.43
2023-02-16T23:54:44.973Z,5.43
2023-02-16T23:57:13.685Z,6.20
2023-02-16T23:59:43.388Z,12.07
